createdAt,value
2023-01-27T00:01:38.101Z,98502.31
2023-01-27T00:04:06.602Z,98504.00
2023-01-27T00:06:36.707Z,98501.50
2023-01-27T00:09:06.498Z,98504.00
2023-01-27T00:11:52.317Z,98505.69
2023-01-27T00:14:20.775Z,98500.63
2023-01-27T00:16:49.042Z,98495.53
2023-01-27T00:19:19.761Z,98488.81
2023-01-27T00:22:05.745Z,98489.63
2023-01-27T00:24:38.549Z,98490.47
2023-01-27T00:27:08.892Z,98493.03
2023-01-27T00:29:40.835Z,98494.75
2023-01-27T00:32:26.699Z,98494.72
2023-01-27T00:34:55.575Z,98495.56
2023-01-27T00:37:25.175Z,98499.78
2023-01-27T00:39:54.818Z,98489.66
2023-01-27T00:42:23.154Z,98498.09
2023-01-27T00:45:05.402Z,98497.25
2023-01-27T00:47:34.035Z,98495.53
2023-01-27T00:50:02.395Z,98494.72
2023-01-27T00:52:31.096Z,98498.94
2023-01-27T00:55:00.713Z,98496.41
2023-01-27T00:57:29.646Z,98503.16
2023-01-27T01:00:11.786Z,98499.78
2023-01-27T01:02:40.189Z,98501.47
2023-01-27T01:05:09.973Z,98498.09
2023-01-27T01:07:38.313Z,98508.22
2023-01-27T01:10:12.857Z,98507.41
2023-01-27T01:12:41.306Z,98510.75
2023-01-27T01:15:10.760Z,98502.34
2023-01-27T01:17:39.001Z,98508.22
2023-01-27T01:20:09.053Z,98516.66
2023-01-27T01:22:38.503Z,98520.03
2023-01-27T01:25:08.415Z,98513.28
2023-01-27T01:27:38.079Z,98510.75
2023-01-27T01:30:09.339Z,98518.38
2023-01-27T01:32:37.800Z,98522.59
2023-01-27T01:35:07.339Z,98520.03
2023-01-27T01:37:35.710Z,98504.84
2023-01-27T01:40:04.379Z,98513.28
2023-01-27T01:45:52.074Z,98503.16
2023-01-27T01:48:32.169Z,98505.69
2023-01-27T01:51:05.968Z,98502.31
2023-01-27T01:53:40.094Z,98498.91
2023-01-27T01:56:17.444Z,98495.56
2023-01-27T01:58:47.993Z,98482.91
2023-01-27T02:01:19.996Z,98481.22
2023-01-27T02:03:55.204Z,98481.22
2023-01-27T02:06:24.285Z,98472.78
2023-01-27T02:08:53.069Z,98477.00
2023-01-27T02:11:22.022Z,98482.91
2023-01-27T02:13:50.410Z,98481.22
2023-01-27T02:16:20.615Z,98477.00
2023-01-27T02:18:48.909Z,98478.69
2023-01-27T02:21:20.040Z,98473.63
2023-01-27T02:23:58.248Z,98470.25
2023-01-27T02:26:32.060Z,98471.09
2023-01-27T02:29:05.673Z,98468.56
2023-01-27T02:31:34.420Z,98465.19
2023-01-27T02:34:07.019Z,98470.25
2023-01-27T02:36:41.419Z,98460.09
2023-01-27T02:39:14.025Z,98470.25
2023-01-27T02:41:46.833Z,98473.63
2023-01-27T02:44:15.277Z,98473.63
2023-01-27T02:46:44.568Z,98477.00
2023-01-27T02:49:13.289Z,98473.59
2023-01-27T02:51:42.663Z,98473.63
2023-01-27T02:54:11.955Z,98477.00
2023-01-27T02:56:40.767Z,98465.19
2023-01-27T02:59:11.682Z,98468.53
2023-01-27T03:01:42.984Z,98465.19
2023-01-27T03:04:12.088Z,98466.88
2023-01-27T03:06:41.082Z,98469.41
2023-01-27T03:09:10.484Z,98463.50
2023-01-27T03:11:56.978Z,98457.56
2023-01-27T03:14:44.391Z,98465.16
2023-01-27T03:17:30.574Z,98461.78
2023-01-27T03:19:58.918Z,98468.53
2023-01-27T03:22:27.667Z,98471.09
2023-01-27T03:24:55.988Z,98473.63
2023-01-27T03:27:24.407Z,98466.88
2023-01-27T03:30:13.478Z,98478.69
2023-01-27T03:32:49.430Z,98475.31
2023-01-27T03:35:46.588Z,98480.38
2023-01-27T03:38:34.550Z,98477.84
2023-01-27T03:41:22.639Z,98487.97
2023-01-27T03:44:08.809Z,98475.31
2023-01-27T03:46:38.598Z,98471.94
2023-01-27T03:49:06.911Z,98482.06
2023-01-27T03:51:35.258Z,98473.63
2023-01-27T03:54:03.676Z,98475.31
2023-01-27T03:56:31.997Z,98473.63
2023-01-27T03:59:00.270Z,98482.03
2023-01-27T04:01:28.717Z,98480.38
2023-01-27T04:04:16.684Z,98477.81
2023-01-27T04:06:55.110Z,98479.50
2023-01-27T04:09:26.747Z,98470.25
2023-01-27T04:11:55.081Z,98471.91
2023-01-27T04:14:25.608Z,98480.38
2023-01-27T04:16:57.397Z,98485.41
2023-01-27T04:19:27.468Z,98487.97
2023-01-27T04:21:57.230Z,98490.50
2023-01-27T04:24:25.795Z,98487.13
2023-01-27T04:26:59.160Z,98500.63
2023-01-27T04:29:30.513Z,98495.56
2023-01-27T04:31:59.290Z,98493.03
2023-01-27T04:34:29.518Z,98494.72
2023-01-27T04:36:58.716Z,98493.88
2023-01-27T04:39:27.488Z,98493.03
2023-01-27T04:41:56.976Z,98492.19
2023-01-27T04:44:25.452Z,98488.81
2023-01-27T04:46:55.000Z,98485.44
2023-01-27T04:49:23.564Z,98488.81
2023-01-27T04:51:53.196Z,98491.31
2023-01-27T04:54:21.485Z,98487.97
2023-01-27T04:56:58.787Z,98487.94
2023-01-27T04:59:27.374Z,98493.03
2023-01-27T05:01:55.888Z,98491.38
2023-01-27T05:04:26.479Z,98499.78
2023-01-27T05:06:56.465Z,98493.88
2023-01-27T05:09:25.447Z,98503.16
2023-01-27T05:11:53.696Z,98505.69
2023-01-27T05:14:23.758Z,98495.56
2023-01-27T05:16:53.499Z,98484.59
2023-01-27T05:19:22.130Z,98495.56
2023-01-27T05:21:50.879Z,98502.31
2023-01-27T05:24:20.812Z,98509.09
2023-01-27T05:26:49.661Z,98501.47
2023-01-27T05:29:18.941Z,98513.28
2023-01-27T05:31:47.383Z,98510.75
2023-01-27T05:34:16.693Z,98507.38
2023-01-27T05:36:44.907Z,98507.38
2023-01-27T05:39:13.803Z,98520.03
2023-01-27T05:41:43.487Z,98516.66
2023-01-27T05:44:13.501Z,98522.59
2023-01-27T05:46:43.275Z,98521.72
2023-01-27T05:49:11.576Z,98514.97
2023-01-27T05:51:41.092Z,98522.56
2023-01-27T05:54:10.996Z,98521.72
2023-01-27T05:56:40.741Z,98518.38
2023-01-27T05:59:12.331Z,98518.38
2023-01-27T06:01:41.005Z,98525.97
2023-01-27T06:04:11.088Z,98520.91
2023-01-27T06:06:39.428Z,98518.38
2023-01-27T06:09:07.994Z,98513.28
2023-01-27T06:11:36.535Z,98519.22
2023-01-27T06:14:04.870Z,98514.97
2023-01-27T06:16:34.809Z,98521.72
2023-01-27T06:19:03.147Z,98523.41
2023-01-27T06:21:31.537Z,98525.09
2023-01-27T06:23:59.837Z,98523.41
2023-01-27T06:26:28.392Z,98515.81
2023-01-27T06:28:58.299Z,98523.41
2023-01-27T06:31:27.647Z,98526.78
2023-01-27T06:33:57.715Z,98523.41
2023-01-27T06:36:26.059Z,98525.94
2023-01-27T06:38:54.322Z,98525.09
2023-01-27T06:41:22.776Z,98531.00
2023-01-27T06:43:51.072Z,98531.00
2023-01-27T06:46:19.492Z,98535.25
2023-01-27T06:48:47.896Z,98544.53
2023-01-27T06:51:17.862Z,98549.59
2023-01-27T06:53:46.167Z,98542.81
2023-01-27T06:56:16.373Z,98549.56
2023-01-27T06:58:45.473Z,98566.47
2023-01-27T07:01:13.827Z,98563.94
2023-01-27T07:03:44.439Z,98561.38
2023-01-27T07:06:15.190Z,98576.59
2023-01-27T07:08:46.886Z,98574.91
2023-01-27T07:11:15.378Z,98588.41
2023-01-27T07:13:44.843Z,98584.16
2023-01-27T07:16:13.167Z,98587.56
2023-01-27T07:18:41.801Z,98589.25
2023-01-27T07:21:10.213Z,98585.88
2023-01-27T07:23:38.595Z,98589.25
2023-01-27T07:26:23.191Z,98587.56
2023-01-27T07:28:53.126Z,98596.03
2023-01-27T07:31:21.611Z,98582.50
2023-01-27T07:33:50.156Z,98601.06
2023-01-27T07:36:18.454Z,98598.53
2023-01-27T07:38:50.429Z,98598.53
2023-01-27T07:41:20.108Z,98605.28
2023-01-27T07:43:51.405Z,98612.06
2023-01-27T07:46:20.808Z,98601.06
2023-01-27T07:48:49.229Z,98606.13
2023-01-27T07:51:17.775Z,98612.88
2023-01-27T07:53:46.264Z,98612.03
2023-01-27T07:56:14.611Z,98615.41
2023-01-27T07:58:44.296Z,98612.88
2023-01-27T08:01:14.409Z,98618.81
2023-01-27T08:03:42.955Z,98622.19
2023-01-27T08:06:13.731Z,98623.84
2023-01-27T08:08:42.088Z,98620.50
2023-01-27T08:11:13.495Z,98616.25
2023-01-27T08:13:43.872Z,98622.19
2023-01-27T08:16:15.491Z,98624.69
2023-01-27T08:18:44.105Z,98623.03
2023-01-27T08:21:14.098Z,98628.91
2023-01-27T08:23:42.841Z,98630.59
2023-01-27T08:26:11.218Z,98639.06
2023-01-27T08:28:42.184Z,98644.97
2023-01-27T08:31:14.254Z,98640.75
2023-01-27T08:33:44.705Z,98636.53
2023-01-27T08:36:16.281Z,98647.50
2023-01-27T08:38:46.302Z,98648.38
2023-01-27T08:41:17.733Z,98644.97
2023-01-27T08:43:46.353Z,98644.97
2023-01-27T08:46:17.032Z,98641.59
2023-01-27T08:48:45.599Z,98653.41
2023-01-27T08:51:15.552Z,98652.56
2023-01-27T08:53:44.021Z,98658.50
2023-01-27T08:56:15.367Z,98650.88
2023-01-27T08:58:45.771Z,98659.31
2023-01-27T09:01:16.975Z,98665.25
2023-01-27T09:03:46.053Z,98661.84
2023-01-27T09:06:15.834Z,98664.41
2023-01-27T09:08:45.188Z,98650.03
2023-01-27T09:11:16.191Z,98653.41
2023-01-27T09:13:44.749Z,98659.31
2023-01-27T09:16:13.092Z,98659.34
2023-01-27T09:18:43.018Z,98645.81
2023-01-27T09:21:11.850Z,98651.72
2023-01-27T09:23:40.157Z,98658.50
2023-01-27T09:26:08.467Z,98661.84
2023-01-27T09:28:36.694Z,98651.72
2023-01-27T09:31:05.176Z,98644.13
2023-01-27T09:33:33.601Z,98646.66
2023-01-27T09:36:11.047Z,98656.81
2023-01-27T09:38:45.244Z,98669.47
2023-01-27T09:41:43.192Z,98666.09
2023-01-27T09:44:34.676Z,98666.94
2023-01-27T09:47:23.645Z,98658.47
2023-01-27T09:50:17.698Z,98659.34
2023-01-27T09:53:07.362Z,98660.16
2023-01-27T09:55:45.305Z,98671.16
2023-01-27T09:58:25.787Z,98661.03
2023-01-27T10:01:02.194Z,98668.63
2023-01-27T10:04:01.551Z,98659.31
2023-01-27T10:06:51.330Z,98666.06
2023-01-27T10:10:09.467Z,98653.41
2023-01-27T10:13:04.767Z,98654.28
2023-01-27T10:15:53.275Z,98657.63
2023-01-27T10:18:40.962Z,98662.72
2023-01-27T10:21:21.152Z,98661.88
2023-01-27T10:24:02.424Z,98661.03
2023-01-27T10:26:39.476Z,98660.19
2023-01-27T10:29:11.607Z,98653.44
2023-01-27T10:31:48.903Z,98662.69
2023-01-27T10:34:29.354Z,98665.25
2023-01-27T10:37:13.965Z,98662.69
2023-01-27T10:39:50.041Z,98661.84
2023-01-27T10:42:29.435Z,98667.75
2023-01-27T10:45:22.640Z,98664.38
2023-01-27T10:48:13.921Z,98668.59
2023-01-27T10:50:46.532Z,98678.75
2023-01-27T10:53:21.103Z,98669.47
2023-01-27T10:55:58.228Z,98671.97
2023-01-27T10:58:40.849Z,98672.81
2023-01-27T11:01:21.021Z,98667.75
2023-01-27T11:03:55.956Z,98671.16
2023-01-27T11:06:28.523Z,98675.34
2023-01-27T11:09:11.840Z,98671.13
2023-01-27T11:11:46.824Z,98672.78
2023-01-27T11:14:23.793Z,98664.38
2023-01-27T11:16:53.531Z,98659.25
2023-01-27T11:19:34.467Z,98661.81
2023-01-27T11:22:08.842Z,98662.66
2023-01-27T11:24:44.909Z,98661.81
2023-01-27T11:27:21.418Z,98665.19
2023-01-27T11:29:55.131Z,98666.03
2023-01-27T11:32:32.398Z,98654.22
2023-01-27T11:35:04.191Z,98655.03
2023-01-27T11:37:33.917Z,98650.00
2023-01-27T11:40:02.374Z,98640.69
2023-01-27T11:42:33.138Z,98651.66
2023-01-27T11:45:03.206Z,98650.78
2023-01-27T11:47:36.112Z,98649.13
2023-01-27T11:50:05.711Z,98643.19
2023-01-27T11:52:33.907Z,98649.09
2023-01-27T11:55:06.584Z,98641.50
2023-01-27T11:57:35.365Z,98642.34
2023-01-27T12:00:08.255Z,98633.06
2023-01-27T12:02:38.514Z,98630.50
2023-01-27T12:05:09.468Z,98632.19
2023-01-27T12:07:50.867Z,98633.84
2023-01-27T12:10:29.195Z,98629.56
2023-01-27T12:12:58.702Z,98621.97
2023-01-27T12:15:30.476Z,98626.22
2023-01-27T12:18:01.107Z,98622.81
2023-01-27T12:20:35.429Z,98622.81
2023-01-27T12:23:08.268Z,98616.03
2023-01-27T12:25:44.012Z,98618.56
2023-01-27T12:28:24.311Z,98616.06
2023-01-27T12:30:56.314Z,98610.09
2023-01-27T12:33:28.619Z,98614.31
2023-01-27T12:36:00.307Z,98609.25
2023-01-27T12:38:32.138Z,98627.03
2023-01-27T12:41:03.050Z,98611.78
2023-01-27T12:43:31.219Z,98616.88
2023-01-27T12:46:09.911Z,98619.41
2023-01-27T12:48:47.219Z,98613.47
2023-01-27T12:51:17.296Z,98610.97
2023-01-27T12:53:45.376Z,98613.50
2023-01-27T12:56:15.185Z,98610.09
2023-01-27T12:58:44.917Z,98610.97
2023-01-27T13:01:24.593Z,98617.72
2023-01-27T13:03:55.180Z,98609.28
2023-01-27T13:06:31.975Z,98610.09
2023-01-27T13:09:01.400Z,98609.25
2023-01-27T13:11:37.163Z,98616.03
2023-01-27T13:14:08.870Z,98609.25
2023-01-27T13:16:39.033Z,98606.75
2023-01-27T13:19:17.451Z,98606.75
2023-01-27T13:21:47.596Z,98606.72
2023-01-27T13:24:21.617Z,98603.34
2023-01-27T13:26:50.460Z,98605.88
2023-01-27T13:29:22.101Z,98613.50
2023-01-27T13:31:56.133Z,98611.78
2023-01-27T13:34:29.755Z,98616.88
2023-01-27T13:37:02.661Z,98615.19
2023-01-27T13:39:44.222Z,98627.06
2023-01-27T13:42:16.161Z,98626.22
2023-01-27T13:44:47.491Z,98630.41
2023-01-27T13:47:21.441Z,98625.31
2023-01-27T13:49:53.416Z,98633.78
2023-01-27T13:52:21.789Z,98636.31
2023-01-27T13:54:50.077Z,98639.75
2023-01-27T13:57:45.000Z,98644.81
2023-01-27T14:00:21.148Z,98646.50
2023-01-27T14:03:08.794Z,98640.56
2023-01-27T14:05:49.081Z,98652.41
2023-01-27T14:08:26.984Z,98659.19
2023-01-27T14:11:05.934Z,98667.59
2023-01-27T14:13:45.133Z,98658.31
2023-01-27T14:16:18.439Z,98662.53
2023-01-27T14:18:51.420Z,98662.53
2023-01-27T14:21:40.141Z,98666.78
2023-01-27T14:24:24.253Z,98661.72
2023-01-27T14:26:56.339Z,98656.59
2023-01-27T14:29:31.040Z,98652.38
2023-01-27T14:32:05.911Z,98654.09
2023-01-27T14:34:58.584Z,98655.78
2023-01-27T14:37:31.062Z,98660.84
2023-01-27T14:40:15.239Z,98666.78
2023-01-27T14:42:51.454Z,98666.78
2023-01-27T14:45:22.856Z,98666.78
2023-01-27T14:47:59.144Z,98655.81
2023-01-27T14:50:33.743Z,98667.63
2023-01-27T14:53:09.302Z,98674.41
2023-01-27T14:55:44.249Z,98665.94
2023-01-27T14:58:29.684Z,98667.66
2023-01-27T15:01:08.402Z,98666.78
2023-01-27T15:04:00.696Z,98662.56
2023-01-27T15:06:36.197Z,98665.09
2023-01-27T15:09:09.349Z,98663.41
2023-01-27T15:11:51.541Z,98660.84
2023-01-27T15:14:46.301Z,98664.28
2023-01-27T15:17:22.932Z,98660.84
2023-01-27T15:20:07.458Z,98662.56
2023-01-27T15:22:58.680Z,98662.56
2023-01-27T15:25:33.418Z,98660.84
2023-01-27T15:28:03.080Z,98662.56
2023-01-27T15:30:34.540Z,98664.25
2023-01-27T15:33:02.924Z,98669.31
2023-01-27T15:35:37.996Z,98664.25
2023-01-27T15:38:38.857Z,98667.66
2023-01-27T15:41:10.976Z,98656.66
2023-01-27T15:43:41.794Z,98665.94
2023-01-27T15:46:25.236Z,98674.38
2023-01-27T15:48:53.537Z,98674.41
2023-01-27T15:51:22.467Z,98684.56
2023-01-27T15:53:54.315Z,98687.09
2023-01-27T15:56:40.657Z,98696.38
2023-01-27T15:59:10.413Z,98698.09
2023-01-27T16:01:38.648Z,98696.41
2023-01-27T16:04:12.935Z,98699.78
2023-01-27T16:06:46.911Z,98709.94
2023-01-27T16:09:22.372Z,98716.69
2023-01-27T16:12:01.102Z,98720.06
2023-01-27T16:14:41.450Z,98723.47
2023-01-27T16:17:21.096Z,98729.38
2023-01-27T16:19:57.095Z,98728.53
2023-01-27T16:22:26.715Z,98728.53
2023-01-27T16:24:58.864Z,98728.50
2023-01-27T16:27:37.430Z,98732.78
2023-01-27T16:30:14.326Z,98736.97
2023-01-27T16:32:45.901Z,98737.84
2023-01-27T16:35:18.018Z,98737.88
2023-01-27T16:38:05.998Z,98735.28
2023-01-27T16:40:36.730Z,98739.53
2023-01-27T16:43:07.162Z,98737.84
2023-01-27T16:45:44.374Z,98742.09
2023-01-27T16:48:22.517Z,98743.75
2023-01-27T16:50:51.274Z,98743.75
2023-01-27T16:53:20.998Z,98741.25
2023-01-27T16:56:02.141Z,98738.69
2023-01-27T16:58:44.705Z,98744.59
2023-01-27T17:01:21.697Z,98746.31
2023-01-27T17:03:50.848Z,98735.28
2023-01-27T17:06:19.359Z,98740.38
2023-01-27T17:08:48.573Z,98742.06
2023-01-27T17:11:25.261Z,98750.53
2023-01-27T17:13:59.377Z,98748.00
2023-01-27T17:16:30.358Z,98748.84
2023-01-27T17:19:04.319Z,98755.59
2023-01-27T17:21:36.002Z,98751.38
2023-01-27T17:24:07.719Z,98750.53
2023-01-27T17:26:37.275Z,98753.06
2023-01-27T17:29:05.538Z,98748.84
2023-01-27T17:31:35.795Z,98752.22
2023-01-27T17:34:04.142Z,98753.91
2023-01-27T17:36:32.279Z,98755.59
2023-01-27T17:39:01.517Z,98757.28
2023-01-27T17:41:35.131Z,98764.91
2023-01-27T17:44:11.768Z,98758.97
2023-01-27T17:46:40.631Z,98757.28
2023-01-27T17:49:13.818Z,98759.00
2023-01-27T17:51:45.487Z,98759.00
2023-01-27T17:54:22.870Z,98762.38
2023-01-27T17:56:53.486Z,98769.13
2023-01-27T17:59:26.535Z,98762.38
2023-01-27T18:01:55.942Z,98769.97
2023-01-27T18:04:24.457Z,98773.38
2023-01-27T18:06:53.054Z,98770.84
2023-01-27T18:09:26.158Z,98770.81
2023-01-27T18:11:57.257Z,98768.28
2023-01-27T18:14:29.339Z,98772.53
2023-01-27T18:17:05.973Z,98769.13
2023-01-27T18:19:34.782Z,98771.69
2023-01-27T18:22:05.445Z,98774.22
2023-01-27T18:24:34.746Z,98771.66
2023-01-27T18:27:03.132Z,98765.75
2023-01-27T18:29:35.725Z,98767.44
2023-01-27T18:32:10.840Z,98769.13
2023-01-27T18:34:47.019Z,98774.22
2023-01-27T18:37:26.233Z,98771.66
2023-01-27T18:39:54.729Z,98770.81
2023-01-27T18:42:25.011Z,98772.53
2023-01-27T18:44:54.538Z,98766.59
2023-01-27T18:47:28.499Z,98776.72
2023-01-27T18:50:00.698Z,98772.50
2023-01-27T18:52:29.646Z,98772.50
2023-01-27T18:55:02.529Z,98787.72
2023-01-27T18:57:30.794Z,98782.66
2023-01-27T19:00:00.478Z,98786.91
2023-01-27T19:02:28.619Z,98783.50
2023-01-27T19:04:56.921Z,98775.91
2023-01-27T19:07:25.119Z,98780.94
2023-01-27T19:09:53.281Z,98777.59
2023-01-27T19:12:21.828Z,98785.19
2023-01-27T19:14:50.168Z,98779.28
2023-01-27T19:17:23.019Z,98786.91
2023-01-27T19:19:51.400Z,98782.66
2023-01-27T19:22:20.846Z,98786.03
2023-01-27T19:24:50.507Z,98789.44
2023-01-27T19:27:19.360Z,98786.03
2023-01-27T19:29:48.247Z,98791.97
2023-01-27T19:32:16.449Z,98795.34
2023-01-27T19:34:45.962Z,98800.41
2023-01-27T19:37:18.624Z,98791.97
2023-01-27T19:39:46.812Z,98789.44
2023-01-27T19:42:16.074Z,98789.44
2023-01-27T19:44:44.378Z,98794.50
2023-01-27T19:47:13.497Z,98791.13
2023-01-27T19:49:42.453Z,98797.88
2023-01-27T19:52:11.976Z,98799.56
2023-01-27T19:54:40.134Z,98796.19
2023-01-27T19:57:11.834Z,98810.56
2023-01-27T19:59:40.038Z,98808.88
2023-01-27T20:02:08.245Z,98814.78
2023-01-27T20:04:36.785Z,98811.41
2023-01-27T20:07:05.266Z,98811.41
2023-01-27T20:09:35.189Z,98813.94
2023-01-27T20:12:04.360Z,98814.81
2023-01-27T20:14:32.924Z,98813.09
2023-01-27T20:17:01.778Z,98813.09
2023-01-27T20:19:30.539Z,98819.00
2023-01-27T20:22:01.486Z,98816.50
2023-01-27T20:24:30.171Z,98813.94
2023-01-27T20:27:00.024Z,98819.84
2023-01-27T20:29:28.403Z,98817.31
2023-01-27T20:31:56.793Z,98814.81
2023-01-27T20:34:25.583Z,98827.50
2023-01-27T20:36:54.088Z,98824.94
2023-01-27T20:39:22.653Z,98826.66
2023-01-27T20:41:52.094Z,98828.34
2023-01-27T20:44:21.737Z,98823.25
2023-01-27T20:46:50.115Z,98823.25
2023-01-27T20:49:18.289Z,98830.03
2023-01-27T20:51:46.507Z,98823.25
2023-01-27T20:54:14.745Z,98832.53
2023-01-27T20:56:42.857Z,98829.16
2023-01-27T20:59:11.057Z,98832.56
2023-01-27T21:01:40.620Z,98829.19
2023-01-27T21:04:08.896Z,98830.00
2023-01-27T21:06:36.979Z,98827.47
2023-01-27T21:09:05.502Z,98833.41
2023-01-27T21:11:33.735Z,98832.56
2023-01-27T21:14:01.843Z,98835.91
2023-01-27T21:16:30.064Z,98839.31
2023-01-27T21:18:59.698Z,98846.09
2023-01-27T21:21:30.047Z,98843.56
2023-01-27T21:23:59.946Z,98842.69
2023-01-27T21:26:28.354Z,98846.94
2023-01-27T21:28:57.706Z,98852.84
2023-01-27T21:31:29.919Z,98846.94
2023-01-27T21:34:00.480Z,98846.94
2023-01-27T21:36:29.411Z,98846.09
2023-01-27T21:38:57.743Z,98841.00
2023-01-27T21:41:40.387Z,98846.09
2023-01-27T21:44:34.666Z,98847.78
2023-01-27T21:47:03.026Z,98842.69
2023-01-27T21:49:34.430Z,98845.22
2023-01-27T21:52:02.869Z,98836.78
2023-01-27T21:54:30.985Z,98840.16
2023-01-27T21:56:59.228Z,98835.06
2023-01-27T21:59:27.444Z,98829.16
2023-01-27T22:01:56.079Z,98831.69
2023-01-27T22:04:24.581Z,98830.03
2023-01-27T22:06:54.220Z,98835.91
2023-01-27T22:09:22.492Z,98835.09
2023-01-27T22:11:54.034Z,98826.63
2023-01-27T22:14:22.233Z,98827.47
2023-01-27T22:16:50.847Z,98825.78
2023-01-27T22:19:19.151Z,98828.31
2023-01-27T22:21:47.488Z,98825.78
2023-01-27T22:24:17.220Z,98824.91
2023-01-27T22:26:45.613Z,98823.22
2023-01-27T22:29:13.946Z,98827.47
2023-01-27T22:31:42.031Z,98818.19
2023-01-27T22:34:10.825Z,98829.19
2023-01-27T22:36:39.195Z,98826.63
2023-01-27T22:39:07.488Z,98830.84
2023-01-27T22:41:36.937Z,98841.00
2023-01-27T22:44:05.343Z,98839.34
2023-01-27T22:46:33.415Z,98835.06
2023-01-27T22:49:01.568Z,98840.16
2023-01-27T22:51:29.711Z,98839.31
2023-01-27T22:53:57.963Z,98843.56
2023-01-27T22:56:26.496Z,98839.34
2023-01-27T22:58:56.095Z,98834.25
2023-01-27T23:01:24.280Z,98845.22
2023-01-27T23:03:52.433Z,98835.09
2023-01-27T23:06:20.742Z,98829.16
2023-01-27T23:08:48.854Z,98832.56
2023-01-27T23:11:17.007Z,98835.94
2023-01-27T23:13:45.397Z,98831.72
2023-01-27T23:16:15.515Z,98833.41
2023-01-27T23:18:43.727Z,98838.50
2023-01-27T23:21:12.214Z,98843.56
2023-01-27T23:23:40.382Z,98839.34
2023-01-27T23:26:09.575Z,98830.03
2023-01-27T23:28:38.748Z,98819.84
2023-01-27T23:31:09.807Z,98821.56
2023-01-27T23:33:40.698Z,98835.09
2023-01-27T23:36:10.283Z,98835.09
2023-01-27T23:38:39.146Z,98825.78
2023-01-27T23:41:11.216Z,98837.59
2023-01-27T23:43:39.381Z,98841.84
2023-01-27T23:46:07.508Z,98838.47
2023-01-27T23:48:35.783Z,98844.41
2023-01-27T23:51:09.252Z,98838.47
2023-01-27T23:53:37.392Z,98835.09
2023-01-27T23:56:06.691Z,98839.31
2023-01-27T23:58:35.077Z,98836.78
